createdAt,value
2023-04-09T00:01:40.122Z,100443.72
2023-04-09T00:05:52.845Z,100441.94
2023-04-09T00:10:06.427Z,100440.16
2023-04-09T00:14:18.713Z,100427.81
2023-04-09T00:18:31.060Z,100429.53
2023-04-09T00:22:43.598Z,100434.84
2023-04-09T00:26:56.021Z,100427.78
2023-04-09T00:31:08.567Z,100425.16
2023-04-09T00:35:20.908Z,100423.38
2023-04-09T00:39:33.329Z,100425.16
2023-04-09T00:43:45.995Z,100433.09
2023-04-09T00:47:58.669Z,100437.50
2023-04-09T00:52:11.557Z,100424.31
2023-04-09T00:56:25.248Z,100413.75
2023-04-09T01:00:39.077Z,100411.97
2023-04-09T01:04:51.697Z,100412.00
2023-04-09T01:09:08.497Z,100408.47
2023-04-09T01:14:10.694Z,100417.25
2023-04-09T01:18:43.482Z,100402.28
2023-04-09T01:23:07.944Z,100411.09
2023-04-09T01:27:20.658Z,100411.09
2023-04-09T01:31:44.572Z,100404.91
2023-04-09T01:35:58.102Z,100400.47
2023-04-09T01:40:11.057Z,100401.38
2023-04-09T01:44:24.914Z,100397.88
2023-04-09T01:48:40.744Z,100386.41
2023-04-09T01:52:53.713Z,100390.78
2023-04-09T01:57:06.267Z,100390.69
2023-04-09T02:01:27.060Z,100385.38
2023-04-09T02:05:44.905Z,100376.56
2023-04-09T02:10:01.287Z,100375.75
2023-04-09T02:14:13.982Z,100365.25
2023-04-09T02:18:31.296Z,100380.16
2023-04-09T02:22:43.740Z,100373.09
2023-04-09T02:26:56.268Z,100365.22
2023-04-09T02:31:08.590Z,100355.56
2023-04-09T02:35:21.033Z,100370.53
2023-04-09T02:39:33.574Z,100366.13
2023-04-09T02:43:45.931Z,100363.47
2023-04-09T02:47:58.356Z,100366.03
2023-04-09T02:52:11.626Z,100355.56
2023-04-09T02:56:24.298Z,100361.72
2023-04-09T03:00:37.713Z,100353.78
2023-04-09T03:04:50.126Z,100351.97
2023-04-09T03:09:02.429Z,100349.31
2023-04-09T03:13:16.246Z,100349.31
2023-04-09T03:17:29.468Z,100349.22
2023-04-09T03:21:41.915Z,100346.56
2023-04-09T03:26:05.210Z,100355.44
2023-04-09T03:30:24.797Z,100347.47
2023-04-09T03:34:37.345Z,100344.84
2023-04-09T03:38:51.302Z,100356.25
2023-04-09T03:43:12.143Z,100351.84
2023-04-09T03:47:33.187Z,100354.41
2023-04-09T03:51:46.119Z,100354.47
2023-04-09T03:55:59.422Z,100356.22
2023-04-09T04:00:12.898Z,100351.88
2023-04-09T04:04:54.816Z,100353.69
2023-04-09T04:09:09.741Z,100358.09
2023-04-09T04:13:30.408Z,100356.28
2023-04-09T04:17:43.972Z,100354.53
2023-04-09T04:22:04.951Z,100354.53
2023-04-09T04:26:21.224Z,100361.56
2023-04-09T04:30:33.741Z,100361.63
2023-04-09T04:34:52.490Z,100365.16
2023-04-09T04:39:11.060Z,100366.00
2023-04-09T04:43:43.976Z,100365.06
2023-04-09T04:48:04.263Z,100365.97
2023-04-09T04:52:17.875Z,100372.97
2023-04-09T04:56:35.509Z,100368.59
2023-04-09T05:00:55.029Z,100373.06
2023-04-09T05:05:07.890Z,100378.44
2023-04-09T05:09:26.051Z,100369.66
2023-04-09T05:13:45.090Z,100373.22
2023-04-09T05:17:58.556Z,100376.72
2023-04-09T05:22:11.752Z,100382.03
2023-04-09T05:26:24.822Z,100379.34
2023-04-09T05:30:40.919Z,100374.03
2023-04-09T05:34:54.454Z,100383.72
2023-04-09T05:39:07.288Z,100383.66
2023-04-09T05:43:19.624Z,100383.63
2023-04-09T05:47:33.094Z,100380.94
2023-04-09T05:51:54.497Z,100380.91
2023-04-09T05:56:15.992Z,100379.09
2023-04-09T06:00:38.300Z,100368.44
2023-04-09T06:04:51.049Z,100372.81
2023-04-09T06:09:03.996Z,100368.34
2023-04-09T06:13:16.463Z,100362.84
2023-04-09T06:17:30.983Z,100361.78
2023-04-09T06:21:43.613Z,100370.53
2023-04-09T06:25:56.180Z,100356.25
2023-04-09T06:30:09.292Z,100361.41
2023-04-09T06:34:21.709Z,100362.94
2023-04-09T06:38:33.988Z,100366.69
2023-04-09T06:42:47.867Z,100373.72
2023-04-09T06:47:10.163Z,100380.59
2023-04-09T06:51:22.506Z,100387.03
2023-04-09T06:55:34.914Z,100393.34
2023-04-09T06:59:47.285Z,100398.97
2023-04-09T07:03:59.756Z,100415.00
2023-04-09T07:08:12.781Z,100420.94
2023-04-09T07:12:34.731Z,100443.13
2023-04-09T07:16:47.156Z,100449.47
2023-04-09T07:20:59.531Z,100458.34
2023-04-09T07:25:12.916Z,100444.41
2023-04-09T07:29:25.341Z,100455.13
2023-04-09T07:33:38.065Z,100468.25
2023-04-09T07:37:50.593Z,100465.59
2023-04-09T07:42:04.692Z,100474.53
2023-04-09T07:46:22.068Z,100465.59
2023-04-09T07:50:34.716Z,100478.84
2023-04-09T07:54:47.153Z,100484.91
2023-04-09T07:58:59.668Z,100482.94
2023-04-09T08:03:12.160Z,100491.66
2023-04-09T08:07:24.866Z,100475.66
2023-04-09T08:11:37.765Z,100469.38
2023-04-09T08:15:50.151Z,100473.50
2023-04-09T08:20:02.533Z,100469.00
2023-04-09T08:24:17.009Z,100475.16
2023-04-09T08:28:29.576Z,100475.72
2023-04-09T08:32:42.045Z,100484.50
2023-04-09T08:36:54.563Z,100489.19
2023-04-09T08:41:07.145Z,100488.69
2023-04-09T08:45:19.596Z,100490.56
2023-04-09T08:49:32.060Z,100502.59
2023-04-09T08:53:47.932Z,100505.44
2023-04-09T08:58:00.779Z,100511.19
2023-04-09T09:02:13.380Z,100520.03
2023-04-09T09:06:28.955Z,100513.03
2023-04-09T09:10:44.135Z,100531.50
2023-04-09T09:14:56.714Z,100528.41
2023-04-09T09:19:11.550Z,100531.91
2023-04-09T09:23:39.458Z,100532.78
2023-04-09T09:27:52.931Z,100530.00
2023-04-09T09:32:14.029Z,100528.88
2023-04-09T09:36:34.572Z,100534.25
2023-04-09T09:40:48.055Z,100534.75
2023-04-09T09:45:02.530Z,100541.25
2023-04-09T09:49:15.021Z,100539.59
2023-04-09T09:53:29.032Z,100526.25
2023-04-09T09:57:45.142Z,100515.44
2023-04-09T10:02:02.869Z,100508.59
2023-04-09T10:06:16.193Z,100512.50
2023-04-09T10:10:29.040Z,100513.25
2023-04-09T10:14:43.039Z,100514.97
2023-04-09T10:18:59.214Z,100508.19
2023-04-09T10:23:35.938Z,100503.00
2023-04-09T10:28:00.655Z,100496.97
2023-04-09T10:32:14.196Z,100495.94
2023-04-09T10:36:28.187Z,100504.09
2023-04-09T10:40:58.681Z,100507.47
2023-04-09T10:45:12.347Z,100502.19
2023-04-09T10:49:26.876Z,100503.16
2023-04-09T10:53:39.297Z,100502.22
2023-04-09T10:57:51.790Z,100497.06
2023-04-09T11:02:10.063Z,100503.28
2023-04-09T11:06:22.856Z,100500.44
2023-04-09T11:10:36.051Z,100512.06
2023-04-09T11:14:48.359Z,100505.13
2023-04-09T11:19:00.836Z,100497.25
2023-04-09T11:23:14.502Z,100493.81
2023-04-09T11:27:27.000Z,100488.56
2023-04-09T11:31:39.360Z,100475.28
2023-04-09T11:35:51.929Z,100485.84
2023-04-09T11:40:04.694Z,100476.13
2023-04-09T11:44:17.244Z,100476.09
2023-04-09T11:48:30.993Z,100472.41
2023-04-09T11:52:45.036Z,100466.97
2023-04-09T11:57:05.746Z,100456.00
2023-04-09T12:01:18.316Z,100464.56
2023-04-09T12:05:32.716Z,100460.91
2023-04-09T12:09:49.365Z,100459.00
2023-04-09T12:14:12.861Z,100460.88
2023-04-09T12:18:25.262Z,100453.16
2023-04-09T12:22:41.057Z,100448.69
2023-04-09T12:26:53.415Z,100438.78
2023-04-09T12:31:09.655Z,100437.66
2023-04-09T12:35:23.397Z,100435.13
2023-04-09T12:39:35.887Z,100431.06
2023-04-09T12:43:49.309Z,100420.97
2023-04-09T12:48:01.873Z,100426.75
2023-04-09T12:52:14.301Z,100429.50
2023-04-09T12:56:28.245Z,100423.69
2023-04-09T13:00:42.361Z,100422.59
2023-04-09T13:04:54.859Z,100414.06
2023-04-09T13:09:07.285Z,100408.03
2023-04-09T13:13:19.776Z,100416.44
2023-04-09T13:17:32.197Z,100405.25
2023-04-09T13:21:44.685Z,100402.66
2023-04-09T13:25:57.146Z,100401.81
2023-04-09T13:30:09.893Z,100399.63
2023-04-09T13:34:22.221Z,100396.22
2023-04-09T13:38:34.727Z,100396.56
2023-04-09T13:42:47.259Z,100392.69
2023-04-09T13:46:59.725Z,100390.53
2023-04-09T13:51:12.315Z,100383.72
2023-04-09T13:55:24.731Z,100386.41
2023-04-09T13:59:42.004Z,100373.56
2023-04-09T14:03:54.918Z,100370.38
2023-04-09T14:08:07.689Z,100370.78
2023-04-09T14:12:20.099Z,100374.13
2023-04-09T14:16:32.693Z,100372.88
2023-04-09T14:20:45.244Z,100369.56
2023-04-09T14:24:57.731Z,100366.63
2023-04-09T14:29:10.148Z,100367.09
2023-04-09T14:33:22.586Z,100362.69
2023-04-09T14:37:34.955Z,100361.44
2023-04-09T14:41:47.584Z,100359.13
2023-04-09T14:46:00.006Z,100355.50
2023-04-09T14:50:13.122Z,100352.56
2023-04-09T14:54:25.552Z,100353.34
2023-04-09T14:58:38.379Z,100351.44
2023-04-09T15:02:51.280Z,100345.28
2023-04-09T15:07:03.807Z,100351.03
2023-04-09T15:11:17.606Z,100349.97
2023-04-09T15:15:30.168Z,100348.47
2023-04-09T15:19:42.783Z,100347.75
2023-04-09T15:23:56.673Z,100338.28
2023-04-09T15:28:09.116Z,100347.50
2023-04-09T15:32:22.009Z,100350.53
2023-04-09T15:36:34.845Z,100348.97
2023-04-09T15:40:47.757Z,100352.63
2023-04-09T15:45:02.687Z,100350.97
2023-04-09T15:49:15.346Z,100352.78
2023-04-09T15:53:29.463Z,100349.22
2023-04-09T15:57:46.929Z,100351.00
2023-04-09T16:01:59.809Z,100342.25
2023-04-09T16:06:14.968Z,100346.78
2023-04-09T16:10:27.587Z,100353.06
2023-04-09T16:14:40.676Z,100355.69
2023-04-09T16:18:53.242Z,100346.94
2023-04-09T16:23:05.751Z,100349.59
2023-04-09T16:27:18.238Z,100350.59
2023-04-09T16:31:30.855Z,100349.81
2023-04-09T16:35:43.322Z,100352.47
2023-04-09T16:39:57.290Z,100356.06
2023-04-09T16:44:09.595Z,100354.38
2023-04-09T16:48:22.100Z,100350.03
2023-04-09T16:52:36.976Z,100360.00
2023-04-09T16:56:51.154Z,100364.66
2023-04-09T17:01:03.872Z,100360.38
2023-04-09T17:05:18.123Z,100363.06
2023-04-09T17:09:31.856Z,100355.06
2023-04-09T17:13:44.420Z,100359.63
2023-04-09T17:17:58.764Z,100358.72
2023-04-09T17:22:11.559Z,100359.56
2023-04-09T17:26:25.025Z,100371.03
2023-04-09T17:30:37.571Z,100361.31
2023-04-09T17:34:49.875Z,100358.53
2023-04-09T17:39:02.666Z,100354.06
2023-04-09T17:43:15.212Z,100357.63
2023-04-09T17:47:27.562Z,100359.38
2023-04-09T17:51:40.032Z,100361.09
2023-04-09T17:55:52.485Z,100362.03
2023-04-09T18:00:08.520Z,100363.81
2023-04-09T18:04:32.053Z,100360.22
2023-04-09T18:08:45.054Z,100365.56
2023-04-09T18:12:59.716Z,100367.31
2023-04-09T18:17:12.507Z,100373.53
2023-04-09T18:21:26.016Z,100370.00
2023-04-09T18:25:39.448Z,100367.47
2023-04-09T18:29:52.558Z,100384.34
2023-04-09T18:34:04.957Z,100373.84
2023-04-09T18:38:18.936Z,100383.59
2023-04-09T18:42:31.539Z,100378.25
2023-04-09T18:46:44.083Z,100391.44
2023-04-09T18:50:56.738Z,100388.03
2023-04-09T18:55:09.740Z,100391.50
2023-04-09T18:59:23.394Z,100402.94
2023-04-09T19:03:36.132Z,100404.75
2023-04-09T19:07:48.628Z,100396.75
2023-04-09T19:12:02.143Z,100410.09
2023-04-09T19:16:14.712Z,100409.22
2023-04-09T19:20:27.413Z,100407.44
2023-04-09T19:24:39.761Z,100410.97
2023-04-09T19:28:52.958Z,100409.19
2023-04-09T19:33:05.706Z,100413.59
2023-04-09T19:37:19.365Z,100418.03
2023-04-09T19:41:32.160Z,100410.94
2023-04-09T19:45:44.688Z,100405.66
2023-04-09T19:49:57.502Z,100414.50
2023-04-09T19:54:11.060Z,100409.19
2023-04-09T19:58:24.330Z,100418.00
2023-04-09T20:02:38.046Z,100407.38
2023-04-09T20:06:52.010Z,100415.34
2023-04-09T20:11:04.961Z,100405.66
2023-04-09T20:15:20.251Z,100406.50
2023-04-09T20:19:32.840Z,100410.94
2023-04-09T20:23:45.901Z,100409.16
2023-04-09T20:27:58.348Z,100411.78
2023-04-09T20:32:10.913Z,100406.50
2023-04-09T20:36:23.513Z,100407.38
2023-04-09T20:40:37.542Z,100401.19
2023-04-09T20:44:50.099Z,100402.94
2023-04-09T20:49:04.222Z,100406.50
2023-04-09T20:53:18.233Z,100402.97
2023-04-09T20:57:30.630Z,100400.31
2023-04-09T21:01:43.246Z,100405.66
2023-04-09T21:05:55.902Z,100409.19
2023-04-09T21:10:09.053Z,100411.81
2023-04-09T21:14:21.676Z,100404.75
2023-04-09T21:18:34.091Z,100402.13
2023-04-09T21:22:46.581Z,100407.38
2023-04-09T21:26:59.867Z,100403.91
2023-04-09T21:31:12.582Z,100410.94
2023-04-09T21:35:25.218Z,100406.53
2023-04-09T21:39:37.700Z,100405.56
2023-04-09T21:43:50.126Z,100405.59
2023-04-09T21:48:03.236Z,100402.06
2023-04-09T21:52:15.781Z,100406.56
2023-04-09T21:56:28.244Z,100401.25
2023-04-09T22:00:40.982Z,100395.97
2023-04-09T22:04:53.348Z,100395.97
2023-04-09T22:09:09.110Z,100397.72
2023-04-09T22:13:21.626Z,100400.34
2023-04-09T22:17:34.087Z,100403.88
2023-04-09T22:21:49.891Z,100390.69
2023-04-09T22:26:03.829Z,100397.72
2023-04-09T22:30:16.321Z,100392.44
2023-04-09T22:34:28.729Z,100388.91
2023-04-09T22:38:41.270Z,100394.19
2023-04-09T22:42:53.708Z,100395.91
2023-04-09T22:47:06.408Z,100391.50
2023-04-09T22:51:18.815Z,100388.94
2023-04-09T22:55:31.584Z,100391.66
2023-04-09T22:59:44.078Z,100385.53
2023-04-09T23:03:56.579Z,100382.88
2023-04-09T23:08:09.958Z,100396.97
2023-04-09T23:12:22.421Z,100395.22
2023-04-09T23:16:34.772Z,100393.47
2023-04-09T23:20:47.160Z,100383.75
2023-04-09T23:24:59.559Z,100381.13
2023-04-09T23:29:11.993Z,100386.44
2023-04-09T23:33:24.486Z,100377.59
2023-04-09T23:37:37.235Z,100372.31
2023-04-09T23:41:49.669Z,100375.00
2023-04-09T23:46:02.263Z,100366.16
2023-04-09T23:50:14.545Z,100360.88
2023-04-09T23:54:27.561Z,100357.38
2023-04-09T23:58:40.044Z,100366.16
